Birger Jarl — SIAU — position and weather

sailwx.info

Track history (hours):
 
Tides and Currents Weather Stations Pressure Air Temp Water Temp Dewpoint Dewpoint Depression Visibility Wind Speed Wind Dir Waves Ship Positions

Birger Jarl

Last reported at 2017-Jul-23 10:30 UTC. Time now 2017-Jul-23 10:54 UTC.
Position N 59°19' E 018°06'.

Length 92 m; draft 5.1 m.

Type: Passenger vessel. MMSI: 265878000.

Date/timePositionNaut miles runAvg speedWind from/ knotsBaromVisibWave heightAir tempDewpointWater temp
2017-Jul-23 10:30N 59°19' E 018°06'0 0.7
2017-Jul-23 09:54N 59°19' E 018°05'0 0.0
2017-Jul-23 09:30N 59°19' E 018°05'0 0.0
2017-Jul-23 09:00N 59°19' E 018°05'0 0.0
2017-Jul-23 08:24N 59°19' E 018°05'0 0.0
2017-Jul-23 08:00N 59°19' E 018°05'0 0.0
2017-Jul-23 07:30N 59°19' E 018°05'0 0.0
2017-Jul-23 06:54N 59°19' E 018°05'0 0.0
2017-Jul-23 06:30N 59°19' E 018°05'0 0.0
2017-Jul-23 06:00N 59°19' E 018°05'0 0.0
2017-Jul-23 05:30N 59°19' E 018°05'0 0.0
2017-Jul-23 05:00N 59°19' E 018°05'0 0.0
2017-Jul-23 04:30N 59°19' E 018°05'0 0.0
2017-Jul-23 04:00N 59°19' E 018°05'0 0.0
2017-Jul-23 03:27N 59°19' E 018°05'0 0.0
2017-Jul-23 03:00N 59°19' E 018°05'0 0.0
2017-Jul-23 02:30N 59°19' E 018°05'0 0.0
2017-Jul-23 02:00N 59°19' E 018°05'0 0.0
2017-Jul-23 01:30N 59°19' E 018°05'0 0.0
2017-Jul-23 01:00N 59°19' E 018°05'0 0.0
2017-Jul-23 00:30N 59°19' E 018°05'0 0.0
2017-Jul-23 00:00N 59°19' E 018°05'0 0.0
2017-Jul-22 23:30N 59°19' E 018°05'0 0.0
2017-Jul-22 23:00N 59°19' E 018°05'0 0.0
2017-Jul-22 22:30N 59°19' E 018°05'0 0.0
2017-Jul-22 22:00N 59°19' E 018°05'0 0.0
2017-Jul-22 21:30N 59°19' E 018°05'0 0.0
2017-Jul-22 21:00N 59°19' E 018°05'0 0.0
2017-Jul-22 20:30N 59°19' E 018°05'0 0.0
2017-Jul-22 20:00N 59°19' E 018°05'0 0.0
2017-Jul-22 19:30N 59°19' E 018°05'0 0.0
2017-Jul-22 18:54N 59°19' E 018°05'0 0.0
2017-Jul-22 18:30N 59°19' E 018°05'0 0.0
2017-Jul-22 18:00N 59°19' E 018°05'0 0.0
2017-Jul-22 17:30N 59°19' E 018°05'0 0.0
2017-Jul-22 17:00N 59°19' E 018°05'0 0.0
2017-Jul-22 16:30N 59°19' E 018°05'0 0.0
2017-Jul-22 16:00N 59°19' E 018°05'0 0.0
2017-Jul-22 15:30N 59°19' E 018°05'0 0.0
2017-Jul-22 15:00N 59°19' E 018°05'0 0.0
2017-Jul-22 14:00N 59°19' E 018°05'0 0.0
2017-Jul-22 13:30N 59°19' E 018°05'0 0.0
2017-Jul-22 13:00N 59°19' E 018°05'1 1.5
2017-Jul-22 12:31N 59°19' E 018°06'3 5.2
2017-Jul-22 12:00N 59°20' E 018°11'2 5.0
2017-Jul-22 11:31N 59°19' E 018°07'1 1.5
2017-Jul-22 10:56N 59°19' E 018°05'0 0.0
2017-Jul-22 10:26N 59°19' E 018°05'0 0.0
2017-Jul-22 09:56N 59°19' E 018°05'0 0.0
2017-Jul-22 09:26N 59°19' E 018°05'0 0.0
2017-Jul-22 08:56N 59°19' E 018°05'0 0.0
2017-Jul-22 08:20N 59°19' E 018°05'0 0.0
2017-Jul-22 07:50N 59°19' E 018°05'0 0.0
2017-Jul-22 07:26N 59°19' E 018°05'0 0.0
2017-Jul-22 06:56N 59°19' E 018°05'0 0.0
2017-Jul-22 06:26N 59°19' E 018°05'0 0.0
2017-Jul-22 05:44N 59°19' E 018°05'0 0.0
2017-Jul-22 05:26N 59°19' E 018°05'0 0.0
2017-Jul-22 04:56N 59°19' E 018°05'0 0.0
2017-Jul-22 04:26N 59°19' E 018°05'0 0.0
2017-Jul-22 03:56N 59°19' E 018°05'0 0.0
2017-Jul-22 03:26N 59°19' E 018°05'0 0.0
2017-Jul-22 02:56N 59°19' E 018°05'0 0.0
2017-Jul-22 02:26N 59°19' E 018°05'0 0.0
2017-Jul-22 01:56N 59°19' E 018°05'0 0.0
2017-Jul-22 01:26N 59°19' E 018°05'0 0.0
2017-Jul-22 00:56N 59°19' E 018°05'0 0.0
2017-Jul-22 00:26N 59°19' E 018°05'0 0.0
2017-Jul-21 23:56N 59°19' E 018°05'0 0.0
2017-Jul-21 23:26N 59°19' E 018°05'0 0.0
2017-Jul-21 22:56N 59°19' E 018°05'0 0.0
2017-Jul-21 22:26N 59°19' E 018°05'0 0.0
2017-Jul-21 21:56N 59°19' E 018°05'0 0.0
2017-Jul-21 21:26N 59°19' E 018°05'0 0.0
2017-Jul-21 20:56N 59°19' E 018°05'0 0.0
2017-Jul-21 20:26N 59°19' E 018°05'0 0.0
2017-Jul-21 19:56N 59°19' E 018°05'0 0.0
2017-Jul-21 19:26N 59°19' E 018°05'0 0.0
2017-Jul-21 18:56N 59°19' E 018°05'0 0.0
2017-Jul-21 18:20N 59°19' E 018°05'0 0.0
2017-Jul-21 17:56N 59°19' E 018°05'0 0.0
2017-Jul-21 17:26N 59°19' E 018°05'0 0.0
2017-Jul-21 16:56N 59°19' E 018°05'0 0.0
2017-Jul-21 16:26N 59°19' E 018°05'0 0.0
2017-Jul-21 15:56N 59°19' E 018°05'0 0.0
2017-Jul-21 15:26N 59°19' E 018°05'0 0.0
2017-Jul-21 14:56N 59°19' E 018°05'0 0.0
2017-Jul-21 14:26N 59°19' E 018°05'0 0.0
2017-Jul-21 13:56N 59°19' E 018°05'0 0.0
2017-Jul-21 13:26N 59°19' E 018°05'0 0.0
2017-Jul-21 12:56N 59°19' E 018°05'0 0.0
2017-Jul-21 12:26N 59°19' E 018°05'0 0.0
2017-Jul-21 11:50N 59°19' E 018°05'0 0.0
2017-Jul-21 11:26N 59°19' E 018°05'0 0.0
2017-Jul-21 10:56N 59°19' E 018°05'0 0.0
2017-Jul-21 10:26N 59°19' E 018°05'0 0.0
2017-Jul-21 09:56N 59°19' E 018°05'0 0.0
2017-Jul-21 09:26N 59°19' E 018°05'0 0.0
2017-Jul-21 08:56N 59°19' E 018°05'0 0.0
2017-Jul-21 08:26N 59°19' E 018°05'0 0.0
2017-Jul-21 07:56N 59°19' E 018°05'0 0.0
2017-Jul-21 07:26N 59°19' E 018°05'0 0.0
2017-Jul-21 06:56N 59°19' E 018°05'0 0.0
2017-Jul-21 06:20N 59°19' E 018°05'0 0.0
2017-Jul-21 05:44N 59°19' E 018°05'0 0.0
2017-Jul-21 05:20N 59°19' E 018°05'0 0.0
2017-Jul-21 04:56N 59°19' E 018°05'0 0.0
2017-Jul-21 04:26N 59°19' E 018°05'0 0.0
2017-Jul-21 03:56N 59°19' E 018°05'0 0.0
2017-Jul-21 03:26N 59°19' E 018°05'0 0.0
2017-Jul-21 02:50N 59°19' E 018°05'0 0.0
2017-Jul-21 01:44N 59°19' E 018°05'0 0.0
2017-Jul-21 01:26N 59°19' E 018°05'0 0.0
2017-Jul-21 00:56N 59°19' E 018°05'0 0.0
2017-Jul-21 00:26N 59°19' E 018°05'0 0.0
2017-Jul-20 23:56N 59°19' E 018°05'0 0.0
2017-Jul-20 23:20N 59°19' E 018°05'0 0.0
2017-Jul-20 22:56N 59°19' E 018°05'0 0.0
2017-Jul-20 22:26N 59°19' E 018°05'0 0.0
2017-Jul-20 21:56N 59°19' E 018°05'0 0.0
2017-Jul-20 21:26N 59°19' E 018°05'0 0.0
2017-Jul-20 20:56N 59°19' E 018°05'0 0.0
2017-Jul-20 20:20N 59°19' E 018°05'0 0.0
2017-Jul-20 19:56N 59°19' E 018°05'0 0.0
2017-Jul-20 19:26N 59°19' E 018°05'0 0.0
2017-Jul-20 18:56N 59°19' E 018°05'0 0.0
2017-Jul-20 18:26N 59°19' E 018°05'0 0.0
2017-Jul-20 17:50N 59°19' E 018°05'0 0.0
2017-Jul-20 17:26N 59°19' E 018°05'0 0.0
2017-Jul-20 16:56N 59°19' E 018°05'0 0.0
2017-Jul-20 16:26N 59°19' E 018°05'0 0.0
2017-Jul-20 15:56N 59°19' E 018°05'0 0.0
2017-Jul-20 15:26N 59°19' E 018°05'0 0.0
2017-Jul-20 14:56N 59°19' E 018°05'0 0.0
2017-Jul-20 13:44N 59°19' E 018°05'0 0.0
2017-Jul-20 13:20N 59°19' E 018°05'0 0.0
2017-Jul-20 12:44N 59°19' E 018°05'0 0.0
2017-Jul-20 12:26N 59°19' E 018°05'0 0.0
2017-Jul-20 11:56N 59°19' E 018°05'0 0.0
2017-Jul-20 11:14N 59°19' E 018°05'0 0.0
2017-Jul-20 10:56N 59°19' E 018°05'0 0.0
2017-Jul-20 10:26N 59°19' E 018°05'0 0.0
2017-Jul-20 09:56N 59°19' E 018°05'0 0.0
2017-Jul-20 09:26N 59°19' E 018°05'0 0.0
2017-Jul-20 08:56N 59°19' E 018°05'0 0.0
2017-Jul-20 08:20N 59°19' E 018°05'0 0.0
2017-Jul-20 07:56N 59°19' E 018°05'0 0.0
2017-Jul-20 07:20N 59°19' E 018°05'0 0.0
2017-Jul-20 06:56N 59°19' E 018°05'0 0.0
2017-Jul-20 06:26N 59°19' E 018°05'0 0.0
2017-Jul-20 05:56N 59°19' E 018°05'0 0.0
2017-Jul-20 05:26N 59°19' E 018°05'0 0.0
2017-Jul-20 04:56N 59°19' E 018°05'0 0.0
2017-Jul-20 04:29N 59°19' E 018°05'0 0.0
2017-Jul-20 03:44N 59°19' E 018°05'0 0.0
2017-Jul-20 03:26N 59°19' E 018°05'0 0.0
2017-Jul-20 02:56N 59°19' E 018°05'0 0.0
2017-Jul-20 02:26N 59°19' E 018°05'0 0.0
2017-Jul-20 01:56N 59°19' E 018°05'0 0.0
2017-Jul-20 01:26N 59°19' E 018°05'0 0.0
2017-Jul-20 00:59N 59°19' E 018°05'0 0.0
2017-Jul-20 00:29N 59°19' E 018°05'0 0.0
2017-Jul-19 23:59N 59°19' E 018°05'0 0.0
2017-Jul-19 23:29N 59°19' E 018°05'0 0.0
2017-Jul-19 22:59N 59°19' E 018°05'0 0.0
2017-Jul-19 22:26N 59°19' E 018°05'0 0.0
2017-Jul-19 21:56N 59°19' E 018°05'0 0.0
2017-Jul-19 21:26N 59°19' E 018°05'0 0.0
2017-Jul-19 20:56N 59°19' E 018°05'0 0.0
2017-Jul-19 20:20N 59°19' E 018°05'0 0.0
2017-Jul-19 19:56N 59°19' E 018°05'0 0.0
2017-Jul-19 19:26N 59°19' E 018°05'0 0.0
2017-Jul-19 18:56N 59°19' E 018°05'0 0.0
2017-Jul-19 18:26N 59°19' E 018°05'0 0.0
2017-Jul-19 17:56N 59°19' E 018°05'0 0.0
2017-Jul-19 17:26N 59°19' E 018°05'0 0.0
2017-Jul-19 16:56N 59°19' E 018°05'0 0.0
2017-Jul-19 16:26N 59°19' E 018°05'0 0.0
2017-Jul-19 15:44N 59°19' E 018°05'0 0.0
2017-Jul-19 15:20N 59°19' E 018°05'0 0.0
2017-Jul-19 14:56N 59°19' E 018°05'0 0.0
2017-Jul-19 14:20N 59°19' E 018°05'0 0.0
2017-Jul-19 13:56N 59°19' E 018°05'0 0.0
2017-Jul-19 13:26N 59°19' E 018°05'0 0.0
2017-Jul-19 12:32N 59°19' E 018°05'0 0.0
2017-Jul-19 12:14N 59°19' E 018°05'0 0.0
2017-Jul-19 11:50N 59°19' E 018°05'0 0.0
2017-Jul-19 11:26N 59°19' E 018°05'0 0.0
2017-Jul-19 10:56N 59°19' E 018°05'0 0.0
2017-Jul-19 10:26N 59°19' E 018°05'0 0.0
2017-Jul-19 09:56N 59°19' E 018°05'0 0.0
2017-Jul-19 09:26N 59°19' E 018°05'0 0.0
2017-Jul-19 08:56N 59°19' E 018°05'0 0.0
2017-Jul-19 08:26N 59°19' E 018°05'0 0.0
2017-Jul-19 07:56N 59°19' E 018°05'0 0.0
2017-Jul-19 07:26N 59°19' E 018°05'0 0.0
2017-Jul-19 06:56N 59°19' E 018°05'0 0.0
2017-Jul-19 06:26N 59°19' E 018°05'0 0.0
2017-Jul-19 05:56N 59°19' E 018°05'0 0.0
2017-Jul-19 05:26N 59°19' E 018°05'0 0.0
2017-Jul-19 04:56N 59°19' E 018°05'0 0.0
2017-Jul-19 04:26N 59°19' E 018°05'0 0.0
2017-Jul-19 03:56N 59°19' E 018°05'0 0.0
2017-Jul-19 03:26N 59°19' E 018°05'0 0.0
2017-Jul-19 02:56N 59°19' E 018°05'0 0.0
2017-Jul-19 02:20N 59°19' E 018°05'0 0.0
2017-Jul-19 01:56N 59°19' E 018°05'0 0.0
2017-Jul-19 01:26N 59°19' E 018°05'0 0.0
2017-Jul-19 00:56N 59°19' E 018°05'0 0.0
2017-Jul-19 00:26N 59°19' E 018°05'0 0.0
2017-Jul-18 23:50N 59°19' E 018°05'0 0.0
2017-Jul-18 23:26N 59°19' E 018°05'0 0.0
2017-Jul-18 22:56N 59°19' E 018°05'0 0.0
2017-Jul-18 22:14N 59°19' E 018°05'0 0.0
2017-Jul-18 21:56N 59°19' E 018°05'0 0.0
2017-Jul-18 21:26N 59°19' E 018°05'0 0.0
2017-Jul-18 20:56N 59°19' E 018°05'0 0.0
2017-Jul-18 20:26N 59°19' E 018°05'0 0.0
2017-Jul-18 19:56N 59°19' E 018°05'0 0.0
2017-Jul-18 19:26N 59°19' E 018°05'0 0.0
2017-Jul-18 18:50N 59°19' E 018°05'0 0.0
2017-Jul-18 18:14N 59°19' E 018°05'0 0.0
2017-Jul-18 17:50N 59°19' E 018°05'0 0.0
2017-Jul-18 17:26N 59°19' E 018°05'0 0.0
2017-Jul-18 16:56N 59°19' E 018°05'0 0.0
2017-Jul-18 16:26N 59°19' E 018°05'0 0.0
2017-Jul-18 15:56N 59°19' E 018°05'0 0.0
2017-Jul-18 15:26N 59°19' E 018°05'0 0.0
2017-Jul-18 14:56N 59°19' E 018°05'0 0.0
2017-Jul-18 13:56N 59°19' E 018°05'0 0.0
2017-Jul-18 13:26N 59°19' E 018°05'0 0.0
2017-Jul-18 12:56N 59°19' E 018°05'0 0.0
2017-Jul-18 12:26N 59°19' E 018°05'0 0.0
2017-Jul-18 11:56N 59°19' E 018°05'0 0.0
2017-Jul-18 11:26N 59°19' E 018°05'0 0.0
2017-Jul-18 10:56N 59°19' E 018°05'0 0.0
2017-Jul-18 10:26N 59°19' E 018°05'0 0.0
2017-Jul-18 09:56N 59°19' E 018°05'0 0.0
2017-Jul-18 09:26N 59°19' E 018°05'0 0.0
2017-Jul-18 08:50N 59°19' E 018°05'0 0.0
2017-Jul-18 08:26N 59°19' E 018°05'0 0.0
2017-Jul-18 07:56N 59°19' E 018°05'0 0.0
2017-Jul-18 07:26N 59°19' E 018°05'0 0.0
2017-Jul-18 06:56N 59°19' E 018°05'0 0.0
2017-Jul-18 06:26N 59°19' E 018°05'0 0.0
2017-Jul-18 05:56N 59°19' E 018°05'0 0.0
2017-Jul-18 05:26N 59°19' E 018°05'0 0.0
2017-Jul-18 04:44N 59°19' E 018°05'0 0.0
2017-Jul-18 04:26N 59°19' E 018°05'0 0.0
2017-Jul-18 03:56N 59°19' E 018°05'0 0.0
2017-Jul-18 03:26N 59°19' E 018°05'0 0.0
2017-Jul-18 02:56N 59°19' E 018°05'0 0.0
2017-Jul-18 02:26N 59°19' E 018°05'0 0.0
2017-Jul-18 01:56N 59°19' E 018°05'0 0.0
2017-Jul-18 01:26N 59°19' E 018°05'0 0.0
2017-Jul-18 00:56N 59°19' E 018°05'0 0.0
2017-Jul-18 00:26N 59°19' E 018°05'0 0.0
2017-Jul-17 23:56N 59°19' E 018°05'0 0.0
2017-Jul-17 23:26N 59°19' E 018°05'0 0.0
2017-Jul-17 22:56N 59°19' E 018°05'0 0.0
2017-Jul-17 22:26N 59°19' E 018°05'0 0.0
2017-Jul-17 21:56N 59°19' E 018°05'0 0.0
2017-Jul-17 21:26N 59°19' E 018°05'0 0.0
2017-Jul-17 20:56N 59°19' E 018°05'0 0.0
2017-Jul-17 20:26N 59°19' E 018°05'0 0.0
2017-Jul-17 19:56N 59°19' E 018°05'0 0.0
2017-Jul-17 19:26N 59°19' E 018°05'0 0.0
2017-Jul-17 18:56N 59°19' E 018°05'0 0.0
2017-Jul-17 18:26N 59°19' E 018°05'0 0.0
2017-Jul-17 17:56N 59°19' E 018°05'0 0.0
2017-Jul-17 17:26N 59°19' E 018°05'0 0.0
2017-Jul-17 16:56N 59°19' E 018°05'0 0.0
2017-Jul-17 16:14N 59°19' E 018°05'0 0.0
2017-Jul-17 15:56N 59°19' E 018°05'0 0.0
2017-Jul-17 15:26N 59°19' E 018°05'0 0.0
2017-Jul-17 14:56N 59°19' E 018°05'0 0.0
2017-Jul-17 14:26N 59°19' E 018°05'0 0.0
2017-Jul-17 13:56N 59°19' E 018°05'0 0.0
2017-Jul-17 13:20N 59°19' E 018°05'0 0.0
2017-Jul-17 12:56N 59°19' E 018°05'0 0.0
2017-Jul-17 12:26N 59°19' E 018°05'0 0.0
2017-Jul-17 11:56N 59°19' E 018°05'0 0.0
2017-Jul-17 11:26N 59°19' E 018°05'0 0.0
2017-Jul-17 10:50N 59°19' E 018°05'0 0.0
2017-Jul-17 10:26N 59°19' E 018°05'0 0.0
2017-Jul-17 09:38N 59°19' E 018°05'0 0.0
2017-Jul-17 09:20N 59°19' E 018°05'0 0.0
2017-Jul-17 08:56N 59°19' E 018°05'0 0.0
2017-Jul-17 08:26N 59°19' E 018°05'0 0.0
2017-Jul-17 07:56N 59°19' E 018°05'0 0.0
2017-Jul-17 07:26N 59°19' E 018°05'0 0.0
2017-Jul-17 06:56N 59°19' E 018°05'0 0.0
2017-Jul-17 06:26N 59°19' E 018°05'0 0.0
2017-Jul-17 05:56N 59°19' E 018°05'0 0.0
2017-Jul-17 05:26N 59°19' E 018°05'0 0.0
2017-Jul-17 04:56N 59°19' E 018°05'0 0.0
2017-Jul-17 04:26N 59°19' E 018°05'0 0.0
2017-Jul-17 03:56N 59°19' E 018°05'0 0.0
2017-Jul-17 03:20N 59°19' E 018°05'0 0.0
2017-Jul-17 02:50N 59°19' E 018°05'0 0.0
2017-Jul-17 02:26N 59°19' E 018°05'0 0.0
2017-Jul-17 01:56N 59°19' E 018°05'0 0.0
2017-Jul-17 01:26N 59°19' E 018°05'0 0.0
2017-Jul-17 00:56N 59°19' E 018°05'0 0.0
2017-Jul-17 00:26N 59°19' E 018°05'0 0.0
2017-Jul-16 23:56N 59°19' E 018°05'0 0.0
2017-Jul-16 23:20N 59°19' E 018°05'0 0.0
2017-Jul-16 22:56N 59°19' E 018°05'0 0.0
2017-Jul-16 22:26N 59°19' E 018°05'0 0.0
2017-Jul-16 21:56N 59°19' E 018°05'0 0.0
2017-Jul-16 21:26N 59°19' E 018°05'0 0.0
2017-Jul-16 20:56N 59°19' E 018°05'0 0.0
2017-Jul-16 20:26N 59°19' E 018°05'0 0.0
2017-Jul-16 19:56N 59°19' E 018°05'0 0.0
2017-Jul-16 19:26N 59°19' E 018°05'0 0.0
2017-Jul-16 18:56N 59°19' E 018°05'0 0.0
2017-Jul-16 18:26N 59°19' E 018°05'0 0.0
2017-Jul-16 17:56N 59°19' E 018°05'0 0.0
2017-Jul-16 17:26N 59°19' E 018°05'0 0.0
2017-Jul-16 16:38N 59°19' E 018°05'0 0.0
2017-Jul-16 16:26N 59°19' E 018°05'0 0.0
2017-Jul-16 15:56N 59°19' E 018°05'0 0.0
2017-Jul-16 15:26N 59°19' E 018°05'0 0.0
2017-Jul-16 14:56N 59°19' E 018°05'0 0.0
2017-Jul-16 14:26N 59°19' E 018°05'0 0.0
2017-Jul-16 13:56N 59°19' E 018°05'0 0.0
2017-Jul-16 13:29N 59°19' E 018°05'0 0.0
2017-Jul-16 12:57N 59°19' E 018°05'0 0.0
2017-Jul-16 12:27N 59°19' E 018°05'0 0.0
2017-Jul-16 11:56N 59°19' E 018°05'0 0.0
2017-Jul-16 11:26N 59°19' E 018°05'0 0.0
2017-Jul-16 10:56N 59°19' E 018°05'0 0.0
2017-Jul-16 10:26N 59°19' E 018°05'0 0.0
2017-Jul-16 09:56N 59°19' E 018°05'0 0.0
2017-Jul-16 09:26N 59°19' E 018°05'0 0.0
2017-Jul-16 08:58N 59°19' E 018°05'0 0.0
2017-Jul-16 08:18N 59°19' E 018°05'0 0.0
2017-Jul-16 07:56N 59°19' E 018°05'0 0.0
2017-Jul-16 07:26N 59°19' E 018°05'0 0.0
2017-Jul-16 06:56N 59°19' E 018°05'0 0.0
2017-Jul-16 06:26N 59°19' E 018°05'0 0.0
2017-Jul-16 05:56N 59°19' E 018°05'0 0.0
2017-Jul-16 05:26N 59°19' E 018°05'0 0.0
2017-Jul-16 04:56N 59°19' E 018°05'0 0.0
2017-Jul-16 04:26N 59°19' E 018°05'0 0.0
2017-Jul-16 03:00N 59°19' E 018°05'0 0.0
2017-Jul-16 02:29N 59°19' E 018°05'0 0.0
2017-Jul-16 01:59N 59°19' E 018°05'0 0.0
2017-Jul-16 01:26N 59°19' E 018°05'0 0.0
2017-Jul-16 00:59N 59°19' E 018°05'0 0.0
2017-Jul-16 00:27N 59°19' E 018°05'0 0.0
2017-Jul-16 00:00N 59°19' E 018°05'0 0.0
2017-Jul-15 23:30N 59°19' E 018°05'0 0.0
2017-Jul-15 22:57N 59°19' E 018°05'0 0.0
2017-Jul-15 22:29N 59°19' E 018°05'0 0.0
2017-Jul-15 21:52N 59°19' E 018°05'0 0.0
2017-Jul-15 21:30N 59°19' E 018°05'0 0.0
2017-Jul-15 20:58N 59°19' E 018°05'0 0.0
2017-Jul-15 20:26N 59°19' E 018°05'0 0.0
2017-Jul-15 19:58N 59°19' E 018°05'0 0.0
2017-Jul-15 19:14N 59°19' E 018°05'0 0.0
2017-Jul-15 19:00N 59°19' E 018°05'0 0.0
2017-Jul-15 18:26N 59°19' E 018°05'0 0.0
2017-Jul-15 17:47N 59°19' E 018°05'0 0.0
2017-Jul-15 17:20N 59°19' E 018°05'0 0.0
2017-Jul-15 16:56N 59°19' E 018°05'0 0.0
2017-Jul-15 16:26N 59°19' E 018°05'0 0.0
2017-Jul-15 15:56N 59°19' E 018°05'0 0.0
2017-Jul-15 15:26N 59°19' E 018°05'0 0.0
2017-Jul-15 14:59N 59°19' E 018°05'0 0.0
2017-Jul-15 13:44N 59°19' E 018°05'0 0.0
2017-Jul-15 13:26N 59°19' E 018°05'0 0.0
2017-Jul-15 13:00N 59°19' E 018°05'1 1.0
2017-Jul-15 12:30N 59°19' E 018°06'2 3.8
2017-Jul-15 12:01N 59°19' E 018°10'1 1.3
2017-Jul-15 11:30N 59°19' E 018°08'2 3.5
2017-Jul-15 11:00N 59°19' E 018°05'0 0.0
2017-Jul-15 10:30N 59°19' E 018°05'0 0.0
2017-Jul-15 10:01N 59°19' E 018°05'0 0.0
2017-Jul-15 09:28N 59°19' E 018°05'0 0.0
2017-Jul-15 08:58N 59°19' E 018°05'0 0.0
2017-Jul-15 08:28N 59°19' E 018°05'0 0.0
2017-Jul-15 07:58N 59°19' E 018°05'0 0.0
2017-Jul-15 07:27N 59°19' E 018°05'0 0.0
2017-Jul-15 06:58N 59°19' E 018°05'0 0.0
2017-Jul-15 06:27N 59°19' E 018°05'0 0.0
2017-Jul-15 05:58N 59°19' E 018°05'0 0.0
2017-Jul-15 05:27N 59°19' E 018°05'0 0.0
2017-Jul-15 04:58N 59°19' E 018°05'0 0.0
2017-Jul-15 04:27N 59°19' E 018°05'0 0.0
2017-Jul-15 03:58N 59°19' E 018°05'0 0.0
2017-Jul-15 03:28N 59°19' E 018°05'0 0.0
2017-Jul-15 03:01N 59°19' E 018°05'0 0.0
2017-Jul-15 02:30N 59°19' E 018°05'0 0.0
2017-Jul-15 01:58N 59°19' E 018°05'0 0.0
2017-Jul-15 01:31N 59°19' E 018°05'0 0.0
2017-Jul-15 01:00N 59°19' E 018°05'0 0.0
2017-Jul-15 00:31N 59°19' E 018°05'0 0.0
2017-Jul-14 23:58N 59°19' E 018°05'0 0.0
2017-Jul-14 23:31N 59°19' E 018°05'0 0.0
2017-Jul-14 23:00N 59°19' E 018°05'0 0.0
2017-Jul-14 22:28N 59°19' E 018°05'0 0.0
2017-Jul-14 21:58N 59°19' E 018°05'0 0.0
2017-Jul-14 21:30N 59°19' E 018°05'0 0.0
2017-Jul-14 21:00N 59°19' E 018°05'0 0.0
2017-Jul-14 20:30N 59°19' E 018°05'0 0.0
2017-Jul-14 19:57N 59°19' E 018°05'0 0.0
2017-Jul-14 19:28N 59°19' E 018°05'0 0.0
2017-Jul-14 18:58N 59°19' E 018°05'0 0.0
2017-Jul-14 18:28N 59°19' E 018°05'0 0.0
2017-Jul-14 17:58N 59°19' E 018°05'0 0.0
2017-Jul-14 17:28N 59°19' E 018°05'0 0.0
2017-Jul-14 16:57N 59°19' E 018°05'0 0.0
2017-Jul-14 16:28N 59°19' E 018°05'0 0.0
2017-Jul-14 15:58N 59°19' E 018°05'0 0.0
2017-Jul-14 15:28N 59°19' E 018°05'0 0.0
2017-Jul-14 14:58N 59°19' E 018°05'0 0.0
2017-Jul-14 14:28N 59°19' E 018°05'0 0.0
2017-Jul-14 13:58N 59°19' E 018°05'0 0.0
2017-Jul-14 13:16N 59°19' E 018°05'0 0.0
2017-Jul-14 12:58N 59°19' E 018°05'0 0.0
2017-Jul-14 12:27N 59°19' E 018°05'0 0.0
2017-Jul-14 11:58N 59°19' E 018°05'0 0.0
2017-Jul-14 11:28N 59°19' E 018°05'0 0.0
2017-Jul-14 10:58N 59°19' E 018°05'0 0.0
2017-Jul-14 10:16N 59°19' E 018°05'0 0.0
2017-Jul-14 09:58N 59°19' E 018°05'0 0.0
2017-Jul-14 09:27N 59°19' E 018°05'0 0.0
2017-Jul-14 08:58N 59°19' E 018°05'0 0.0
2017-Jul-14 08:28N 59°19' E 018°05'0 0.0
2017-Jul-14 08:00N 59°19' E 018°05'0 0.0
2017-Jul-14 07:28N 59°19' E 018°05'0 0.0
2017-Jul-14 06:58N 59°19' E 018°05'0 0.0
2017-Jul-14 06:28N 59°19' E 018°05'0 0.0
2017-Jul-14 05:58N 59°19' E 018°05'0 0.0
2017-Jul-14 05:27N 59°19' E 018°05'0 0.0
2017-Jul-14 04:58N 59°19' E 018°05'0 0.0
2017-Jul-14 04:28N 59°19' E 018°05'0 0.0
2017-Jul-14 03:58N 59°19' E 018°05'0 0.0
2017-Jul-14 03:22N 59°19' E 018°05'0 0.0
2017-Jul-14 02:58N 59°19' E 018°05'0 0.0
2017-Jul-14 02:28N 59°19' E 018°05'0 0.0
2017-Jul-14 01:57N 59°19' E 018°05'0 0.0
2017-Jul-14 01:28N 59°19' E 018°05'0 0.0
2017-Jul-14 00:58N 59°19' E 018°05'0 0.0
2017-Jul-14 00:28N 59°19' E 018°05'0 0.0
2017-Jul-13 23:58N 59°19' E 018°05'0 0.0
2017-Jul-13 23:27N 59°19' E 018°05'0 0.0
2017-Jul-13 22:58N 59°19' E 018°05'0 0.0
2017-Jul-13 22:27N 59°19' E 018°05'0 0.0
2017-Jul-13 21:58N 59°19' E 018°05'0 0.0
2017-Jul-13 21:28N 59°19' E 018°05'0 0.0
2017-Jul-13 20:58N 59°19' E 018°05'0 0.0
2017-Jul-13 20:22N 59°19' E 018°05'0 0.0
2017-Jul-13 19:52N 59°19' E 018°05'0 0.0
2017-Jul-13 19:27N 59°19' E 018°05'0 0.0
2017-Jul-13 18:58N 59°19' E 018°05'0 0.0
2017-Jul-13 18:28N 59°19' E 018°05'0 0.0
2017-Jul-13 17:58N 59°19' E 018°05'0 0.0
2017-Jul-13 17:28N 59°19' E 018°05'0 0.0
2017-Jul-13 16:58N 59°19' E 018°05'0 0.0
2017-Jul-13 16:28N 59°19' E 018°05'0 0.0
2017-Jul-13 15:52N 59°19' E 018°05'0 0.0
2017-Jul-13 15:28N 59°19' E 018°05'0 0.0
2017-Jul-13 14:58N 59°19' E 018°05'0 0.0
2017-Jul-13 14:28N 59°19' E 018°05'0 0.0
2017-Jul-13 13:58N 59°19' E 018°05'0 0.0
2017-Jul-13 13:28N 59°19' E 018°05'0 0.0
2017-Jul-13 12:58N 59°19' E 018°05'0 0.0
2017-Jul-13 12:27N 59°19' E 018°05'0 0.0
2017-Jul-13 11:58N 59°19' E 018°05'0 0.0
2017-Jul-13 11:27N 59°19' E 018°05'0 0.0
2017-Jul-13 10:57N 59°19' E 018°05'  
Track history (hours):
 
Tides and Currents Weather Stations Pressure Air Temp Water Temp Dewpoint Dewpoint Depression Visibility Wind Speed Wind Dir Waves Ship Positions

Birger Jarl

Last reported at 2017-Jul-23 10:30 UTC. Time now 2017-Jul-23 10:54 UTC.
Position N 59°19' E 018°06'.

Length 92 m; draft 5.1 m.

Type: Passenger vessel. MMSI: 265878000.

Date/timePositionNaut miles runAvg speedWind from/ knotsBaromVisibWave heightAir tempDewpointWater temp
2017-Jul-23 10:30N 59°19' E 018°06'0 0.7
2017-Jul-23 09:54N 59°19' E 018°05'0 0.0
2017-Jul-23 09:30N 59°19' E 018°05'0 0.0
2017-Jul-23 09:00N 59°19' E 018°05'0 0.0
2017-Jul-23 08:24N 59°19' E 018°05'0 0.0
2017-Jul-23 08:00N 59°19' E 018°05'0 0.0
2017-Jul-23 07:30N 59°19' E 018°05'0 0.0
2017-Jul-23 06:54N 59°19' E 018°05'0 0.0
2017-Jul-23 06:30N 59°19' E 018°05'0 0.0
2017-Jul-23 06:00N 59°19' E 018°05'0 0.0
2017-Jul-23 05:30N 59°19' E 018°05'0 0.0
2017-Jul-23 05:00N 59°19' E 018°05'0 0.0
2017-Jul-23 04:30N 59°19' E 018°05'0 0.0
2017-Jul-23 04:00N 59°19' E 018°05'0 0.0
2017-Jul-23 03:27N 59°19' E 018°05'0 0.0
2017-Jul-23 03:00N 59°19' E 018°05'0 0.0
2017-Jul-23 02:30N 59°19' E 018°05'0 0.0
2017-Jul-23 02:00N 59°19' E 018°05'0 0.0
2017-Jul-23 01:30N 59°19' E 018°05'0 0.0
2017-Jul-23 01:00N 59°19' E 018°05'0 0.0
2017-Jul-23 00:30N 59°19' E 018°05'0 0.0
2017-Jul-23 00:00N 59°19' E 018°05'0 0.0
2017-Jul-22 23:30N 59°19' E 018°05'0 0.0
2017-Jul-22 23:00N 59°19' E 018°05'0 0.0
2017-Jul-22 22:30N 59°19' E 018°05'0 0.0
2017-Jul-22 22:00N 59°19' E 018°05'0 0.0
2017-Jul-22 21:30N 59°19' E 018°05'0 0.0
2017-Jul-22 21:00N 59°19' E 018°05'0 0.0
2017-Jul-22 20:30N 59°19' E 018°05'0 0.0
2017-Jul-22 20:00N 59°19' E 018°05'0 0.0
2017-Jul-22 19:30N 59°19' E 018°05'0 0.0
2017-Jul-22 18:54N 59°19' E 018°05'0 0.0
2017-Jul-22 18:30N 59°19' E 018°05'0 0.0
2017-Jul-22 18:00N 59°19' E 018°05'0 0.0
2017-Jul-22 17:30N 59°19' E 018°05'0 0.0
2017-Jul-22 17:00N 59°19' E 018°05'0 0.0
2017-Jul-22 16:30N 59°19' E 018°05'0 0.0
2017-Jul-22 16:00N 59°19' E 018°05'0 0.0
2017-Jul-22 15:30N 59°19' E 018°05'0 0.0
2017-Jul-22 15:00N 59°19' E 018°05'0 0.0
2017-Jul-22 14:00N 59°19' E 018°05'0 0.0
2017-Jul-22 13:30N 59°19' E 018°05'0 0.0
2017-Jul-22 13:00N 59°19' E 018°05'1 1.5
2017-Jul-22 12:31N 59°19' E 018°06'3 5.2
2017-Jul-22 12:00N 59°20' E 018°11'2 5.0
2017-Jul-22 11:31N 59°19' E 018°07'1 1.5
2017-Jul-22 10:56N 59°19' E 018°05'0 0.0
2017-Jul-22 10:26N 59°19' E 018°05'0 0.0
2017-Jul-22 09:56N 59°19' E 018°05'0 0.0
2017-Jul-22 09:26N 59°19' E 018°05'0 0.0
2017-Jul-22 08:56N 59°19' E 018°05'0 0.0
2017-Jul-22 08:20N 59°19' E 018°05'0 0.0
2017-Jul-22 07:50N 59°19' E 018°05'0 0.0
2017-Jul-22 07:26N 59°19' E 018°05'0 0.0
2017-Jul-22 06:56N 59°19' E 018°05'0 0.0
2017-Jul-22 06:26N 59°19' E 018°05'0 0.0
2017-Jul-22 05:44N 59°19' E 018°05'0 0.0
2017-Jul-22 05:26N 59°19' E 018°05'0 0.0
2017-Jul-22 04:56N 59°19' E 018°05'0 0.0
2017-Jul-22 04:26N 59°19' E 018°05'0 0.0
2017-Jul-22 03:56N 59°19' E 018°05'0 0.0
2017-Jul-22 03:26N 59°19' E 018°05'0 0.0
2017-Jul-22 02:56N 59°19' E 018°05'0 0.0
2017-Jul-22 02:26N 59°19' E 018°05'0 0.0
2017-Jul-22 01:56N 59°19' E 018°05'0 0.0
2017-Jul-22 01:26N 59°19' E 018°05'0 0.0
2017-Jul-22 00:56N 59°19' E 018°05'0 0.0
2017-Jul-22 00:26N 59°19' E 018°05'0 0.0
2017-Jul-21 23:56N 59°19' E 018°05'0 0.0
2017-Jul-21 23:26N 59°19' E 018°05'0 0.0
2017-Jul-21 22:56N 59°19' E 018°05'0 0.0
2017-Jul-21 22:26N 59°19' E 018°05'0 0.0
2017-Jul-21 21:56N 59°19' E 018°05'0 0.0
2017-Jul-21 21:26N 59°19' E 018°05'0 0.0
2017-Jul-21 20:56N 59°19' E 018°05'0 0.0
2017-Jul-21 20:26N 59°19' E 018°05'0 0.0
2017-Jul-21 19:56N 59°19' E 018°05'0 0.0
2017-Jul-21 19:26N 59°19' E 018°05'0 0.0
2017-Jul-21 18:56N 59°19' E 018°05'0 0.0
2017-Jul-21 18:20N 59°19' E 018°05'0 0.0
2017-Jul-21 17:56N 59°19' E 018°05'0 0.0
2017-Jul-21 17:26N 59°19' E 018°05'0 0.0
2017-Jul-21 16:56N 59°19' E 018°05'0 0.0
2017-Jul-21 16:26N 59°19' E 018°05'0 0.0
2017-Jul-21 15:56N 59°19' E 018°05'0 0.0
2017-Jul-21 15:26N 59°19' E 018°05'0 0.0
2017-Jul-21 14:56N 59°19' E 018°05'0 0.0
2017-Jul-21 14:26N 59°19' E 018°05'0 0.0
2017-Jul-21 13:56N 59°19' E 018°05'0 0.0
2017-Jul-21 13:26N 59°19' E 018°05'0 0.0
2017-Jul-21 12:56N 59°19' E 018°05'0 0.0
2017-Jul-21 12:26N 59°19' E 018°05'0 0.0
2017-Jul-21 11:50N 59°19' E 018°05'0 0.0
2017-Jul-21 11:26N 59°19' E 018°05'0 0.0
2017-Jul-21 10:56N 59°19' E 018°05'0 0.0
2017-Jul-21 10:26N 59°19' E 018°05'0 0.0
2017-Jul-21 09:56N 59°19' E 018°05'0 0.0
2017-Jul-21 09:26N 59°19' E 018°05'0 0.0
2017-Jul-21 08:56N 59°19' E 018°05'0 0.0
2017-Jul-21 08:26N 59°19' E 018°05'0 0.0
2017-Jul-21 07:56N 59°19' E 018°05'0 0.0
2017-Jul-21 07:26N 59°19' E 018°05'0 0.0
2017-Jul-21 06:56N 59°19' E 018°05'0 0.0
2017-Jul-21 06:20N 59°19' E 018°05'0 0.0
2017-Jul-21 05:44N 59°19' E 018°05'0 0.0
2017-Jul-21 05:20N 59°19' E 018°05'0 0.0
2017-Jul-21 04:56N 59°19' E 018°05'0 0.0
2017-Jul-21 04:26N 59°19' E 018°05'0 0.0
2017-Jul-21 03:56N 59°19' E 018°05'0 0.0
2017-Jul-21 03:26N 59°19' E 018°05'0 0.0
2017-Jul-21 02:50N 59°19' E 018°05'0 0.0
2017-Jul-21 01:44N 59°19' E 018°05'0 0.0
2017-Jul-21 01:26N 59°19' E 018°05'0 0.0
2017-Jul-21 00:56N 59°19' E 018°05'0 0.0
2017-Jul-21 00:26N 59°19' E 018°05'0 0.0
2017-Jul-20 23:56N 59°19' E 018°05'0 0.0
2017-Jul-20 23:20N 59°19' E 018°05'0 0.0
2017-Jul-20 22:56N 59°19' E 018°05'0 0.0
2017-Jul-20 22:26N 59°19' E 018°05'0 0.0
2017-Jul-20 21:56N 59°19' E 018°05'0 0.0
2017-Jul-20 21:26N 59°19' E 018°05'0 0.0
2017-Jul-20 20:56N 59°19' E 018°05'0 0.0
2017-Jul-20 20:20N 59°19' E 018°05'0 0.0
2017-Jul-20 19:56N 59°19' E 018°05'0 0.0
2017-Jul-20 19:26N 59°19' E 018°05'0 0.0
2017-Jul-20 18:56N 59°19' E 018°05'0 0.0
2017-Jul-20 18:26N 59°19' E 018°05'0 0.0
2017-Jul-20 17:50N 59°19' E 018°05'0 0.0
2017-Jul-20 17:26N 59°19' E 018°05'0 0.0
2017-Jul-20 16:56N 59°19' E 018°05'0 0.0
2017-Jul-20 16:26N 59°19' E 018°05'0 0.0
2017-Jul-20 15:56N 59°19' E 018°05'0 0.0
2017-Jul-20 15:26N 59°19' E 018°05'0 0.0
2017-Jul-20 14:56N 59°19' E 018°05'0 0.0
2017-Jul-20 13:44N 59°19' E 018°05'0 0.0
2017-Jul-20 13:20N 59°19' E 018°05'0 0.0
2017-Jul-20 12:44N 59°19' E 018°05'0 0.0
2017-Jul-20 12:26N 59°19' E 018°05'0 0.0
2017-Jul-20 11:56N 59°19' E 018°05'0 0.0
2017-Jul-20 11:14N 59°19' E 018°05'0 0.0
2017-Jul-20 10:56N 59°19' E 018°05'0 0.0
2017-Jul-20 10:26N 59°19' E 018°05'0 0.0
2017-Jul-20 09:56N 59°19' E 018°05'0 0.0
2017-Jul-20 09:26N 59°19' E 018°05'0 0.0
2017-Jul-20 08:56N 59°19' E 018°05'0 0.0
2017-Jul-20 08:20N 59°19' E 018°05'0 0.0
2017-Jul-20 07:56N 59°19' E 018°05'0 0.0
2017-Jul-20 07:20N 59°19' E 018°05'0 0.0
2017-Jul-20 06:56N 59°19' E 018°05'0 0.0
2017-Jul-20 06:26N 59°19' E 018°05'0 0.0
2017-Jul-20 05:56N 59°19' E 018°05'0 0.0
2017-Jul-20 05:26N 59°19' E 018°05'0 0.0
2017-Jul-20 04:56N 59°19' E 018°05'0 0.0
2017-Jul-20 04:29N 59°19' E 018°05'0 0.0
2017-Jul-20 03:44N 59°19' E 018°05'0 0.0
2017-Jul-20 03:26N 59°19' E 018°05'0 0.0
2017-Jul-20 02:56N 59°19' E 018°05'0 0.0
2017-Jul-20 02:26N 59°19' E 018°05'0 0.0
2017-Jul-20 01:56N 59°19' E 018°05'0 0.0
2017-Jul-20 01:26N 59°19' E 018°05'0 0.0
2017-Jul-20 00:59N 59°19' E 018°05'0 0.0
2017-Jul-20 00:29N 59°19' E 018°05'0 0.0
2017-Jul-19 23:59N 59°19' E 018°05'0 0.0
2017-Jul-19 23:29N 59°19' E 018°05'0 0.0
2017-Jul-19 22:59N 59°19' E 018°05'0 0.0
2017-Jul-19 22:26N 59°19' E 018°05'0 0.0
2017-Jul-19 21:56N 59°19' E 018°05'0 0.0
2017-Jul-19 21:26N 59°19' E 018°05'0 0.0
2017-Jul-19 20:56N 59°19' E 018°05'0 0.0
2017-Jul-19 20:20N 59°19' E 018°05'0 0.0
2017-Jul-19 19:56N 59°19' E 018°05'0 0.0
2017-Jul-19 19:26N 59°19' E 018°05'0 0.0
2017-Jul-19 18:56N 59°19' E 018°05'0 0.0
2017-Jul-19 18:26N 59°19' E 018°05'0 0.0
2017-Jul-19 17:56N 59°19' E 018°05'0 0.0
2017-Jul-19 17:26N 59°19' E 018°05'0 0.0
2017-Jul-19 16:56N 59°19' E 018°05'0 0.0
2017-Jul-19 16:26N 59°19' E 018°05'0 0.0
2017-Jul-19 15:44N 59°19' E 018°05'0 0.0
2017-Jul-19 15:20N 59°19' E 018°05'0 0.0
2017-Jul-19 14:56N 59°19' E 018°05'0 0.0
2017-Jul-19 14:20N 59°19' E 018°05'0 0.0
2017-Jul-19 13:56N 59°19' E 018°05'0 0.0
2017-Jul-19 13:26N 59°19' E 018°05'0 0.0
2017-Jul-19 12:32N 59°19' E 018°05'0 0.0
2017-Jul-19 12:14N 59°19' E 018°05'0 0.0
2017-Jul-19 11:50N 59°19' E 018°05'0 0.0
2017-Jul-19 11:26N 59°19' E 018°05'0 0.0
2017-Jul-19 10:56N 59°19' E 018°05'0 0.0
2017-Jul-19 10:26N 59°19' E 018°05'0 0.0
2017-Jul-19 09:56N 59°19' E 018°05'0 0.0
2017-Jul-19 09:26N 59°19' E 018°05'0 0.0
2017-Jul-19 08:56N 59°19' E 018°05'0 0.0
2017-Jul-19 08:26N 59°19' E 018°05'0 0.0
2017-Jul-19 07:56N 59°19' E 018°05'0 0.0
2017-Jul-19 07:26N 59°19' E 018°05'0 0.0
2017-Jul-19 06:56N 59°19' E 018°05'0 0.0
2017-Jul-19 06:26N 59°19' E 018°05'0 0.0
2017-Jul-19 05:56N 59°19' E 018°05'0 0.0
2017-Jul-19 05:26N 59°19' E 018°05'0 0.0
2017-Jul-19 04:56N 59°19' E 018°05'0 0.0
2017-Jul-19 04:26N 59°19' E 018°05'0 0.0
2017-Jul-19 03:56N 59°19' E 018°05'0 0.0
2017-Jul-19 03:26N 59°19' E 018°05'0 0.0
2017-Jul-19 02:56N 59°19' E 018°05'0 0.0
2017-Jul-19 02:20N 59°19' E 018°05'0 0.0
2017-Jul-19 01:56N 59°19' E 018°05'0 0.0
2017-Jul-19 01:26N 59°19' E 018°05'0 0.0
2017-Jul-19 00:56N 59°19' E 018°05'0 0.0
2017-Jul-19 00:26N 59°19' E 018°05'0 0.0
2017-Jul-18 23:50N 59°19' E 018°05'0 0.0
2017-Jul-18 23:26N 59°19' E 018°05'0 0.0
2017-Jul-18 22:56N 59°19' E 018°05'0 0.0
2017-Jul-18 22:14N 59°19' E 018°05'0 0.0
2017-Jul-18 21:56N 59°19' E 018°05'0 0.0
2017-Jul-18 21:26N 59°19' E 018°05'0 0.0
2017-Jul-18 20:56N 59°19' E 018°05'0 0.0
2017-Jul-18 20:26N 59°19' E 018°05'0 0.0
2017-Jul-18 19:56N 59°19' E 018°05'0 0.0
2017-Jul-18 19:26N 59°19' E 018°05'0 0.0
2017-Jul-18 18:50N 59°19' E 018°05'0 0.0
2017-Jul-18 18:14N 59°19' E 018°05'0 0.0
2017-Jul-18 17:50N 59°19' E 018°05'0 0.0
2017-Jul-18 17:26N 59°19' E 018°05'0 0.0
2017-Jul-18 16:56N 59°19' E 018°05'0 0.0
2017-Jul-18 16:26N 59°19' E 018°05'0 0.0
2017-Jul-18 15:56N 59°19' E 018°05'0 0.0
2017-Jul-18 15:26N 59°19' E 018°05'0 0.0
2017-Jul-18 14:56N 59°19' E 018°05'0 0.0
2017-Jul-18 13:56N 59°19' E 018°05'0 0.0
2017-Jul-18 13:26N 59°19' E 018°05'0 0.0
2017-Jul-18 12:56N 59°19' E 018°05'0 0.0
2017-Jul-18 12:26N 59°19' E 018°05'0 0.0
2017-Jul-18 11:56N 59°19' E 018°05'0 0.0
2017-Jul-18 11:26N 59°19' E 018°05'0 0.0
2017-Jul-18 10:56N 59°19' E 018°05'0 0.0
2017-Jul-18 10:26N 59°19' E 018°05'0 0.0
2017-Jul-18 09:56N 59°19' E 018°05'0 0.0
2017-Jul-18 09:26N 59°19' E 018°05'0 0.0
2017-Jul-18 08:50N 59°19' E 018°05'0 0.0
2017-Jul-18 08:26N 59°19' E 018°05'0 0.0
2017-Jul-18 07:56N 59°19' E 018°05'0 0.0
2017-Jul-18 07:26N 59°19' E 018°05'0 0.0
2017-Jul-18 06:56N 59°19' E 018°05'0 0.0
2017-Jul-18 06:26N 59°19' E 018°05'0 0.0
2017-Jul-18 05:56N 59°19' E 018°05'0 0.0
2017-Jul-18 05:26N 59°19' E 018°05'0 0.0
2017-Jul-18 04:44N 59°19' E 018°05'0 0.0
2017-Jul-18 04:26N 59°19' E 018°05'0 0.0
2017-Jul-18 03:56N 59°19' E 018°05'0 0.0
2017-Jul-18 03:26N 59°19' E 018°05'0 0.0
2017-Jul-18 02:56N 59°19' E 018°05'0 0.0
2017-Jul-18 02:26N 59°19' E 018°05'0 0.0
2017-Jul-18 01:56N 59°19' E 018°05'0 0.0
2017-Jul-18 01:26N 59°19' E 018°05'0 0.0
2017-Jul-18 00:56N 59°19' E 018°05'0 0.0
2017-Jul-18 00:26N 59°19' E 018°05'0 0.0
2017-Jul-17 23:56N 59°19' E 018°05'0 0.0
2017-Jul-17 23:26N 59°19' E 018°05'0 0.0
2017-Jul-17 22:56N 59°19' E 018°05'0 0.0
2017-Jul-17 22:26N 59°19' E 018°05'0 0.0
2017-Jul-17 21:56N 59°19' E 018°05'0 0.0
2017-Jul-17 21:26N 59°19' E 018°05'0 0.0
2017-Jul-17 20:56N 59°19' E 018°05'0 0.0
2017-Jul-17 20:26N 59°19' E 018°05'0 0.0
2017-Jul-17 19:56N 59°19' E 018°05'0 0.0
2017-Jul-17 19:26N 59°19' E 018°05'0 0.0
2017-Jul-17 18:56N 59°19' E 018°05'0 0.0
2017-Jul-17 18:26N 59°19' E 018°05'0 0.0
2017-Jul-17 17:56N 59°19' E 018°05'0 0.0
2017-Jul-17 17:26N 59°19' E 018°05'0 0.0
2017-Jul-17 16:56N 59°19' E 018°05'0 0.0
2017-Jul-17 16:14N 59°19' E 018°05'0 0.0
2017-Jul-17 15:56N 59°19' E 018°05'0 0.0
2017-Jul-17 15:26N 59°19' E 018°05'0 0.0
2017-Jul-17 14:56N 59°19' E 018°05'0 0.0
2017-Jul-17 14:26N 59°19' E 018°05'0 0.0
2017-Jul-17 13:56N 59°19' E 018°05'0 0.0
2017-Jul-17 13:20N 59°19' E 018°05'0 0.0
2017-Jul-17 12:56N 59°19' E 018°05'0 0.0
2017-Jul-17 12:26N 59°19' E 018°05'0 0.0
2017-Jul-17 11:56N 59°19' E 018°05'0 0.0
2017-Jul-17 11:26N 59°19' E 018°05'0 0.0
2017-Jul-17 10:50N 59°19' E 018°05'0 0.0
2017-Jul-17 10:26N 59°19' E 018°05'0 0.0
2017-Jul-17 09:38N 59°19' E 018°05'0 0.0
2017-Jul-17 09:20N 59°19' E 018°05'0 0.0
2017-Jul-17 08:56N 59°19' E 018°05'0 0.0
2017-Jul-17 08:26N 59°19' E 018°05'0 0.0
2017-Jul-17 07:56N 59°19' E 018°05'0 0.0
2017-Jul-17 07:26N 59°19' E 018°05'0 0.0
2017-Jul-17 06:56N 59°19' E 018°05'0 0.0
2017-Jul-17 06:26N 59°19' E 018°05'0 0.0
2017-Jul-17 05:56N 59°19' E 018°05'0 0.0
2017-Jul-17 05:26N 59°19' E 018°05'0 0.0
2017-Jul-17 04:56N 59°19' E 018°05'0 0.0
2017-Jul-17 04:26N 59°19' E 018°05'0 0.0
2017-Jul-17 03:56N 59°19' E 018°05'0 0.0
2017-Jul-17 03:20N 59°19' E 018°05'0 0.0
2017-Jul-17 02:50N 59°19' E 018°05'0 0.0
2017-Jul-17 02:26N 59°19' E 018°05'0 0.0
2017-Jul-17 01:56N 59°19' E 018°05'0 0.0
2017-Jul-17 01:26N 59°19' E 018°05'0 0.0
2017-Jul-17 00:56N 59°19' E 018°05'0 0.0
2017-Jul-17 00:26N 59°19' E 018°05'0 0.0
2017-Jul-16 23:56N 59°19' E 018°05'0 0.0
2017-Jul-16 23:20N 59°19' E 018°05'0 0.0
2017-Jul-16 22:56N 59°19' E 018°05'0 0.0
2017-Jul-16 22:26N 59°19' E 018°05'0 0.0
2017-Jul-16 21:56N 59°19' E 018°05'0 0.0
2017-Jul-16 21:26N 59°19' E 018°05'0 0.0
2017-Jul-16 20:56N 59°19' E 018°05'0 0.0
2017-Jul-16 20:26N 59°19' E 018°05'0 0.0
2017-Jul-16 19:56N 59°19' E 018°05'0 0.0
2017-Jul-16 19:26N 59°19' E 018°05'0 0.0
2017-Jul-16 18:56N 59°19' E 018°05'0 0.0
2017-Jul-16 18:26N 59°19' E 018°05'0 0.0
2017-Jul-16 17:56N 59°19' E 018°05'0 0.0
2017-Jul-16 17:26N 59°19' E 018°05'0 0.0
2017-Jul-16 16:38N 59°19' E 018°05'0 0.0
2017-Jul-16 16:26N 59°19' E 018°05'0 0.0
2017-Jul-16 15:56N 59°19' E 018°05'0 0.0
2017-Jul-16 15:26N 59°19' E 018°05'0 0.0
2017-Jul-16 14:56N 59°19' E 018°05'0 0.0
2017-Jul-16 14:26N 59°19' E 018°05'0 0.0
2017-Jul-16 13:56N 59°19' E 018°05'0 0.0
2017-Jul-16 13:29N 59°19' E 018°05'0 0.0
2017-Jul-16 12:57N 59°19' E 018°05'0 0.0
2017-Jul-16 12:27N 59°19' E 018°05'0 0.0
2017-Jul-16 11:56N 59°19' E 018°05'0 0.0
2017-Jul-16 11:26N 59°19' E 018°05'0 0.0
2017-Jul-16 10:56N 59°19' E 018°05'0 0.0
2017-Jul-16 10:26N 59°19' E 018°05'0 0.0
2017-Jul-16 09:56N 59°19' E 018°05'0 0.0
2017-Jul-16 09:26N 59°19' E 018°05'0 0.0
2017-Jul-16 08:58N 59°19' E 018°05'0 0.0
2017-Jul-16 08:18N 59°19' E 018°05'0 0.0
2017-Jul-16 07:56N 59°19' E 018°05'0 0.0
2017-Jul-16 07:26N 59°19' E 018°05'0 0.0
2017-Jul-16 06:56N 59°19' E 018°05'0 0.0
2017-Jul-16 06:26N 59°19' E 018°05'0 0.0
2017-Jul-16 05:56N 59°19' E 018°05'0 0.0
2017-Jul-16 05:26N 59°19' E 018°05'0 0.0
2017-Jul-16 04:56N 59°19' E 018°05'0 0.0
2017-Jul-16 04:26N 59°19' E 018°05'0 0.0
2017-Jul-16 03:00N 59°19' E 018°05'0 0.0
2017-Jul-16 02:29N 59°19' E 018°05'0 0.0
2017-Jul-16 01:59N 59°19' E 018°05'0 0.0
2017-Jul-16 01:26N 59°19' E 018°05'0 0.0
2017-Jul-16 00:59N 59°19' E 018°05'0 0.0
2017-Jul-16 00:27N 59°19' E 018°05'0 0.0
2017-Jul-16 00:00N 59°19' E 018°05'0 0.0
2017-Jul-15 23:30N 59°19' E 018°05'0 0.0
2017-Jul-15 22:57N 59°19' E 018°05'0 0.0
2017-Jul-15 22:29N 59°19' E 018°05'0 0.0
2017-Jul-15 21:52N 59°19' E 018°05'0 0.0
2017-Jul-15 21:30N 59°19' E 018°05'0 0.0
2017-Jul-15 20:58N 59°19' E 018°05'0 0.0
2017-Jul-15 20:26N 59°19' E 018°05'0 0.0
2017-Jul-15 19:58N 59°19' E 018°05'0 0.0
2017-Jul-15 19:14N 59°19' E 018°05'0 0.0
2017-Jul-15 19:00N 59°19' E 018°05'0 0.0
2017-Jul-15 18:26N 59°19' E 018°05'0 0.0
2017-Jul-15 17:47N 59°19' E 018°05'0 0.0
2017-Jul-15 17:20N 59°19' E 018°05'0 0.0
2017-Jul-15 16:56N 59°19' E 018°05'0 0.0
2017-Jul-15 16:26N 59°19' E 018°05'0 0.0
2017-Jul-15 15:56N 59°19' E 018°05'0 0.0
2017-Jul-15 15:26N 59°19' E 018°05'0 0.0
2017-Jul-15 14:59N 59°19' E 018°05'0 0.0
2017-Jul-15 13:44N 59°19' E 018°05'0 0.0
2017-Jul-15 13:26N 59°19' E 018°05'0 0.0
2017-Jul-15 13:00N 59°19' E 018°05'1 1.0
2017-Jul-15 12:30N 59°19' E 018°06'2 3.8
2017-Jul-15 12:01N 59°19' E 018°10'1 1.3
2017-Jul-15 11:30N 59°19' E 018°08'2 3.5
2017-Jul-15 11:00N 59°19' E 018°05'0 0.0
2017-Jul-15 10:30N 59°19' E 018°05'0 0.0
2017-Jul-15 10:01N 59°19' E 018°05'0 0.0
2017-Jul-15 09:28N 59°19' E 018°05'0 0.0
2017-Jul-15 08:58N 59°19' E 018°05'0 0.0
2017-Jul-15 08:28N 59°19' E 018°05'0 0.0
2017-Jul-15 07:58N 59°19' E 018°05'0 0.0
2017-Jul-15 07:27N 59°19' E 018°05'0 0.0
2017-Jul-15 06:58N 59°19' E 018°05'0 0.0
2017-Jul-15 06:27N 59°19' E 018°05'0 0.0
2017-Jul-15 05:58N 59°19' E 018°05'0 0.0
2017-Jul-15 05:27N 59°19' E 018°05'0 0.0
2017-Jul-15 04:58N 59°19' E 018°05'0 0.0
2017-Jul-15 04:27N 59°19' E 018°05'0 0.0
2017-Jul-15 03:58N 59°19' E 018°05'0 0.0
2017-Jul-15 03:28N 59°19' E 018°05'0 0.0
2017-Jul-15 03:01N 59°19' E 018°05'0 0.0
2017-Jul-15 02:30N 59°19' E 018°05'0 0.0
2017-Jul-15 01:58N 59°19' E 018°05'0 0.0
2017-Jul-15 01:31N 59°19' E 018°05'0 0.0
2017-Jul-15 01:00N 59°19' E 018°05'0 0.0
2017-Jul-15 00:31N 59°19' E 018°05'0 0.0
2017-Jul-14 23:58N 59°19' E 018°05'0 0.0
2017-Jul-14 23:31N 59°19' E 018°05'0 0.0
2017-Jul-14 23:00N 59°19' E 018°05'0 0.0
2017-Jul-14 22:28N 59°19' E 018°05'0 0.0
2017-Jul-14 21:58N 59°19' E 018°05'0 0.0
2017-Jul-14 21:30N 59°19' E 018°05'0 0.0
2017-Jul-14 21:00N 59°19' E 018°05'0 0.0
2017-Jul-14 20:30N 59°19' E 018°05'0 0.0
2017-Jul-14 19:57N 59°19' E 018°05'0 0.0
2017-Jul-14 19:28N 59°19' E 018°05'0 0.0
2017-Jul-14 18:58N 59°19' E 018°05'0 0.0
2017-Jul-14 18:28N 59°19' E 018°05'0 0.0
2017-Jul-14 17:58N 59°19' E 018°05'0 0.0
2017-Jul-14 17:28N 59°19' E 018°05'0 0.0
2017-Jul-14 16:57N 59°19' E 018°05'0 0.0
2017-Jul-14 16:28N 59°19' E 018°05'0 0.0
2017-Jul-14 15:58N 59°19' E 018°05'0 0.0
2017-Jul-14 15:28N 59°19' E 018°05'0 0.0
2017-Jul-14 14:58N 59°19' E 018°05'0 0.0
2017-Jul-14 14:28N 59°19' E 018°05'0 0.0
2017-Jul-14 13:58N 59°19' E 018°05'0 0.0
2017-Jul-14 13:16N 59°19' E 018°05'0 0.0
2017-Jul-14 12:58N 59°19' E 018°05'0 0.0
2017-Jul-14 12:27N 59°19' E 018°05'0 0.0
2017-Jul-14 11:58N 59°19' E 018°05'0 0.0
2017-Jul-14 11:28N 59°19' E 018°05'0 0.0
2017-Jul-14 10:58N 59°19' E 018°05'0 0.0
2017-Jul-14 10:16N 59°19' E 018°05'0 0.0
2017-Jul-14 09:58N 59°19' E 018°05'0 0.0
2017-Jul-14 09:27N 59°19' E 018°05'0 0.0
2017-Jul-14 08:58N 59°19' E 018°05'0 0.0
2017-Jul-14 08:28N 59°19' E 018°05'0 0.0
2017-Jul-14 08:00N 59°19' E 018°05'0 0.0
2017-Jul-14 07:28N 59°19' E 018°05'0 0.0
2017-Jul-14 06:58N 59°19' E 018°05'0 0.0
2017-Jul-14 06:28N 59°19' E 018°05'0 0.0
2017-Jul-14 05:58N 59°19' E 018°05'0 0.0
2017-Jul-14 05:27N 59°19' E 018°05'0 0.0
2017-Jul-14 04:58N 59°19' E 018°05'0 0.0
2017-Jul-14 04:28N 59°19' E 018°05'0 0.0
2017-Jul-14 03:58N 59°19' E 018°05'0 0.0
2017-Jul-14 03:22N 59°19' E 018°05'0 0.0
2017-Jul-14 02:58N 59°19' E 018°05'0 0.0
2017-Jul-14 02:28N 59°19' E 018°05'0 0.0
2017-Jul-14 01:57N 59°19' E 018°05'0 0.0
2017-Jul-14 01:28N 59°19' E 018°05'0 0.0
2017-Jul-14 00:58N 59°19' E 018°05'0 0.0
2017-Jul-14 00:28N 59°19' E 018°05'0 0.0
2017-Jul-13 23:58N 59°19' E 018°05'0 0.0
2017-Jul-13 23:27N 59°19' E 018°05'0 0.0
2017-Jul-13 22:58N 59°19' E 018°05'0 0.0
2017-Jul-13 22:27N 59°19' E 018°05'0 0.0
2017-Jul-13 21:58N 59°19' E 018°05'0 0.0
2017-Jul-13 21:28N 59°19' E 018°05'0 0.0
2017-Jul-13 20:58N 59°19' E 018°05'0 0.0
2017-Jul-13 20:22N 59°19' E 018°05'0 0.0
2017-Jul-13 19:52N 59°19' E 018°05'0 0.0
2017-Jul-13 19:27N 59°19' E 018°05'0 0.0
2017-Jul-13 18:58N 59°19' E 018°05'0 0.0
2017-Jul-13 18:28N 59°19' E 018°05'0 0.0
2017-Jul-13 17:58N 59°19' E 018°05'0 0.0
2017-Jul-13 17:28N 59°19' E 018°05'0 0.0
2017-Jul-13 16:58N 59°19' E 018°05'0 0.0
2017-Jul-13 16:28N 59°19' E 018°05'0 0.0
2017-Jul-13 15:52N 59°19' E 018°05'0 0.0
2017-Jul-13 15:28N 59°19' E 018°05'0 0.0
2017-Jul-13 14:58N 59°19' E 018°05'0 0.0
2017-Jul-13 14:28N 59°19' E 018°05'0 0.0
2017-Jul-13 13:58N 59°19' E 018°05'0 0.0
2017-Jul-13 13:28N 59°19' E 018°05'0 0.0
2017-Jul-13 12:58N 59°19' E 018°05'0 0.0
2017-Jul-13 12:27N 59°19' E 018°05'0 0.0
2017-Jul-13 11:58N 59°19' E 018°05'0 0.0
2017-Jul-13 11:27N 59°19' E 018°05'0 0.0
2017-Jul-13 10:57N 59°19' E 018°05'  

Dump ship's entire track history